Currently 81°F in Simi Valley, California, USA
81°F
84°F / 52°F
8 mph W
0.00"
Wednesday, October 17, 2018 3:26 PM PDT

Simi Valley, California Weather Summary
Last 36 Hours

Temperature Winds Hourly Humidity Dewpoint
Time Report Norm Report Norm Max Gusts Precip. Rpt. Norm Rpt. Norm Pressure
1Wed 03:26 PM  81.0°F  79°F  8 mph W  7 mph  17 mph  0.00"  19%  43%  33°F  54°F  29.96"
2Wed 03:09 PM  83.9°F  79°F  4 mph E  7 mph  16 mph  ----  14%  43%  28°F  54°F  29.96"
Wed 03:00 PM  83.5°F  80°F  5 mph W  7 mph  16 mph  0.00"  15%  42%  28°F  54°F  29.96"
Wed 02:00 PM  83.6°F  80°F  5 mph E  7 mph  17 mph  0.00"  14%  40%  27°F  53°F  29.98"
Wed 01:00 PM  81.1°F  80°F  calm  6 mph  11 mph  0.00"  15%  40%  27°F  53°F  30.02"
Wed 12:00 PM  80.6°F  77°F  calm  5 mph  12 mph  0.00"  17%  43%  31°F  53°F  30.05"
Wed 11:00 AM  77.8°F  74°F  1 mph NE  5 mph  10 mph  0.00"  21%  49%  33°F  53°F  30.06"
Wed 10:00 AM  73.1°F  70°F  2 mph N  4 mph  11 mph  0.00"  24%  57%  33°F  53°F  30.07"
Wed 09:00 AM  67.8°F  65°F  3 mph W  3 mph  10 mph  0.00"  31%  64%  34°F  52°F  30.08"
Wed 08:00 AM  56.2°F  60°F  calm  3 mph  4 mph  0.00"  45%  68%  34°F  50°F  30.06"
Wed 07:00 AM  52.4°F  59°F  calm  3 mph  5 mph  0.00"  49%  69%  33°F  49°F  30.04"
3Wed 06:00 AM  51.7°F  60°F  3 mph N  3 mph  none  0.00"  47%  68%  31°F  49°F  30.03"
Wed 05:00 AM  53.4°F  60°F  calm  3 mph  9 mph  0.00"  44%  68%  31°F  49°F  30.01"
Wed 04:00 AM  53.2°F  60°F  calm  3 mph  none  0.00"  45%  67%  32°F  49°F  30.01"
Wed 03:00 AM  58.7°F  61°F  calm  3 mph  8 mph  0.00"  36%  66%  30°F  49°F  30.01"
Wed 02:00 AM  57.3°F  61°F  calm  2 mph  5 mph  0.00"  38%  66%  31°F  49°F  30.02"
Wed 01:00 AM  55.9°F  62°F  calm  3 mph  2 mph  0.00"  42%  65%  32°F  50°F  30.01"
Wed 12:00 AM  55.4°F  62°F  calm  2 mph  none  0.00"  49%  66%  36°F  50°F  30.02"
Tue 11:00 PM  57.0°F  63°F  calm  3 mph  5 mph  0.00"  47%  65%  36°F  50°F  30.02"
Tue 10:00 PM  59.5°F  64°F  calm  3 mph  6 mph  0.00"  40%  64%  34°F  51°F  30.01"
Tue 09:00 PM  61.8°F  65°F  calm  2 mph  7 mph  0.00"  37%  63%  34°F  52°F  30.01"
Tue 08:00 PM  64.3°F  67°F  5 mph W  2 mph  9 mph  0.00"  36%  61%  35°F  53°F  29.99"
Tue 07:00 PM  70.0°F  70°F  calm  3 mph  14 mph  0.00"  29%  58%  35°F  54°F  29.97"
Tue 06:00 PM  74.2°F  73°F  7 mph W  4 mph  18 mph  0.00"  21%  53%  30°F  54°F  29.96"
Tue 05:00 PM  81.3°F  76°F  5 mph NW  6 mph  13 mph  0.00"  11%  48%  20°F  54°F  29.95"
Tue 04:00 PM  82.0°F  78°F  5 mph SE  7 mph  16 mph  0.00"  12%  45%  23°F  54°F  29.95"
Tue 03:00 PM  81.7°F  79°F  8 mph NE  7 mph  22 mph  0.00"  12%  44%  22°F  55°F  29.96"
Tue 02:00 PM  81.1°F  80°F  7 mph E  7 mph  20 mph  0.00"  13%  42%  24°F  54°F  29.97"
Tue 01:00 PM  79.9°F  79°F  6 mph E  6 mph  24 mph  0.00"  14%  42%  24°F  53°F  30.01"
Tue 12:00 PM  77.7°F  77°F  9 mph E  5 mph  20 mph  0.00"  15%  45%  25°F  53°F  30.04"
Tue 11:00 AM  74.6°F  74°F  6 mph E  5 mph  17 mph  0.00"  15%  51%  23°F  54°F  30.06"
Tue 10:00 AM  70.5°F  70°F  2 mph E  4 mph  18 mph  0.00"  18%  58%  23°F  54°F  30.07"
Tue 09:00 AM  60.9°F  64°F  8 mph E  2 mph  11 mph  0.00"  28%  66%  26°F  52°F  30.07"
Tue 08:00 AM  49.4°F  60°F  calm  3 mph  3 mph  0.00"  48%  70%  30°F  50°F  30.05"
Tue 07:00 AM  48.1°F  59°F  calm  3 mph  none  0.00"  49%  70%  29°F  49°F  30.04"
Tue 06:00 AM  49.5°F  59°F  calm  3 mph  2 mph  0.00"  44%  70%  28°F  49°F  30.03"
Tue 05:00 AM  51.1°F  60°F  calm  3 mph  4 mph  0.00"  38%  69%  25°F  49°F  30.02"
Tue 04:00 AM  53.5°F  60°F  calm  3 mph  4 mph  0.00"  33%  68%  24°F  49°F  30.01"

  1. Current weather data. No green row appears if the current weather data is also the high or low for the current day.
  2. High temperature for the current day.
  3. Low temperature for the current day.

The Simi Valley, California weather pages are a service of WeatherCurrents.
Copyright ©Wed Oct 17 15:27:18 PDT 2018  WeatherCurrents. All rights reserved. - Submit questions and comments - Privacy Policy

This page automatically refreshes every 10 minutes.